createdAt,value
2023-05-12T00:00:30.372Z,1.08
2023-05-12T00:01:30.434Z,0.95
2023-05-12T00:02:30.555Z,0.68
2023-05-12T00:03:30.710Z,0.97
2023-05-12T00:04:30.623Z,0.97
2023-05-12T00:05:30.730Z,1.20
2023-05-12T00:06:30.720Z,0.94
2023-05-12T00:07:30.857Z,1.06
2023-05-12T00:08:30.830Z,1.11
2023-05-12T00:09:30.898Z,0.92
2023-05-12T00:10:30.973Z,0.77
2023-05-12T00:11:31.026Z,0.95
2023-05-12T00:12:31.102Z,0.78
2023-05-12T00:13:31.194Z,1.05
2023-05-12T00:14:31.247Z,1.18
2023-05-12T00:15:31.304Z,0.94
2023-05-12T00:16:31.407Z,0.98
2023-05-12T00:17:31.519Z,0.86
2023-05-12T00:18:31.508Z,1.00
2023-05-12T00:19:31.536Z,1.20
2023-05-12T00:20:31.640Z,1.06
2023-05-12T00:21:31.668Z,1.32
2023-05-12T00:22:31.741Z,1.14
2023-05-12T00:23:31.805Z,0.94
2023-05-12T00:24:31.863Z,0.98
2023-05-12T00:25:31.957Z,0.96
2023-05-12T00:26:31.987Z,0.90
2023-05-12T00:27:32.071Z,0.70
2023-05-12T00:28:32.146Z,1.10
2023-05-12T00:29:32.188Z,0.79
2023-05-12T00:30:32.291Z,0.96
2023-05-12T00:31:32.333Z,1.06
2023-05-12T00:32:32.469Z,0.95
2023-05-12T00:33:32.466Z,0.98
2023-05-12T00:34:32.534Z,1.23
2023-05-12T00:35:32.582Z,0.91
2023-05-12T00:36:32.646Z,0.90
2023-05-12T00:37:32.745Z,0.80
2023-05-12T00:38:32.771Z,1.05
2023-05-12T00:39:32.842Z,0.78
2023-05-12T00:40:32.924Z,0.87
2023-05-12T00:41:32.980Z,0.84
2023-05-12T00:42:33.039Z,0.82
2023-05-12T00:43:33.108Z,1.07
2023-05-12T00:44:33.153Z,1.02
2023-05-12T00:45:33.287Z,1.09
2023-05-12T00:46:33.322Z,1.08
2023-05-12T00:47:33.365Z,1.27
2023-05-12T00:48:33.413Z,0.88
2023-05-12T00:49:33.476Z,1.33
2023-05-12T00:50:33.570Z,1.09
2023-05-12T00:51:33.617Z,0.94
2023-05-12T00:52:33.684Z,1.02
2023-05-12T00:53:47.651Z,1.00
2023-05-12T00:54:34.752Z,1.15
2023-05-12T00:55:33.737Z,0.84
2023-05-12T00:56:33.737Z,1.07
2023-05-12T00:57:33.705Z,1.02
2023-05-12T00:58:33.716Z,1.04
2023-05-12T00:59:33.729Z,1.12
2023-05-12T01:00:33.682Z,1.23
2023-05-12T01:01:33.834Z,0.78
2023-05-12T01:02:33.823Z,1.03
2023-05-12T01:03:33.945Z,1.15
2023-05-12T01:04:33.862Z,1.03
2023-05-12T01:05:33.920Z,0.84
2023-05-12T01:06:33.989Z,1.01
2023-05-12T01:07:34.065Z,0.72
2023-05-12T01:08:34.104Z,0.92
2023-05-12T01:09:34.161Z,0.82
2023-05-12T01:10:34.230Z,0.98
2023-05-12T01:11:34.291Z,1.07
2023-05-12T01:12:34.342Z,1.03
2023-05-12T01:13:34.409Z,1.08
2023-05-12T01:14:34.446Z,1.19
2023-05-12T01:15:34.496Z,0.93
2023-05-12T01:16:34.584Z,1.19
2023-05-12T01:17:34.681Z,1.04
2023-05-12T01:18:34.786Z,1.10
2023-05-12T01:19:34.789Z,0.89
2023-05-12T01:20:34.878Z,0.89
2023-05-12T01:21:34.944Z,1.57
2023-05-12T01:22:35.009Z,0.78
2023-05-12T01:23:35.049Z,0.99
2023-05-12T01:24:35.103Z,1.17
2023-05-12T01:25:35.149Z,1.20
2023-05-12T01:26:35.200Z,1.12
2023-05-12T01:27:35.258Z,0.84
2023-05-12T01:28:35.317Z,0.94
2023-05-12T01:29:35.373Z,0.83
2023-05-12T01:30:35.427Z,1.18
2023-05-12T01:31:35.554Z,1.01
2023-05-12T01:32:35.579Z,0.98
2023-05-12T01:33:35.634Z,1.21
2023-05-12T01:34:35.677Z,0.81
2023-05-12T01:35:35.744Z,1.14
2023-05-12T01:36:35.836Z,1.06
2023-05-12T01:37:35.868Z,0.90
2023-05-12T01:38:35.926Z,1.23
2023-05-12T01:39:35.992Z,0.98
2023-05-12T01:40:36.044Z,1.08
2023-05-12T01:41:36.124Z,1.09
2023-05-12T01:42:36.171Z,0.98
2023-05-12T01:43:36.237Z,0.92
2023-05-12T01:44:36.301Z,0.97
2023-05-12T01:45:36.343Z,1.37
2023-05-12T01:46:36.493Z,1.04
2023-05-12T01:47:36.470Z,0.82
2023-05-12T01:48:36.510Z,0.92
2023-05-12T01:49:36.551Z,0.72
2023-05-12T01:50:36.606Z,1.02
2023-05-12T01:51:36.643Z,1.03
2023-05-12T01:52:36.662Z,1.14
2023-05-12T01:53:36.707Z,0.92
2023-05-12T01:54:36.732Z,0.98
2023-05-12T01:55:36.800Z,1.04
2023-05-12T01:56:36.826Z,0.95
2023-05-12T01:57:36.896Z,1.30
2023-05-12T01:58:36.964Z,1.03
2023-05-12T01:59:36.978Z,1.11
2023-05-12T02:00:37.026Z,1.05
2023-05-12T02:01:37.135Z,0.85
2023-05-12T02:02:37.205Z,1.07
2023-05-12T02:03:37.313Z,0.99
2023-05-12T02:04:37.253Z,0.98
2023-05-12T02:05:37.348Z,0.87
2023-05-12T02:06:37.407Z,1.32
2023-05-12T02:07:37.481Z,1.11
2023-05-12T02:08:37.526Z,1.19
2023-05-12T02:09:37.597Z,1.31
2023-05-12T02:10:37.635Z,1.10
2023-05-12T02:11:37.707Z,1.11
2023-05-12T02:12:37.745Z,0.97
2023-05-12T02:13:37.804Z,1.24
2023-05-12T02:14:37.850Z,0.91
2023-05-12T02:15:38.240Z,0.98
2023-05-12T02:16:38.121Z,1.51
2023-05-12T02:17:38.125Z,1.06
2023-05-12T02:18:38.103Z,1.24
2023-05-12T02:19:38.147Z,1.14
2023-05-12T02:20:38.164Z,1.40
2023-05-12T02:21:38.254Z,1.18
2023-05-12T02:22:38.266Z,0.92
2023-05-12T02:23:38.304Z,1.12
2023-05-12T02:24:38.348Z,0.92
2023-05-12T02:25:38.375Z,1.08
2023-05-12T02:26:38.415Z,1.22
2023-05-12T02:27:38.467Z,1.38
2023-05-12T02:28:38.477Z,1.22
2023-05-12T02:29:38.521Z,1.23
2023-05-12T02:30:38.559Z,1.25
2023-05-12T02:31:38.603Z,0.97
2023-05-12T02:32:38.679Z,1.18
2023-05-12T02:33:38.732Z,1.10
2023-05-12T02:34:38.796Z,1.27
2023-05-12T02:35:38.898Z,0.82
2023-05-12T02:36:38.947Z,0.94
2023-05-12T02:37:39.035Z,1.22
2023-05-12T02:38:39.109Z,1.20
2023-05-12T02:39:39.194Z,1.03
2023-05-12T02:40:39.282Z,1.02
2023-05-12T02:41:39.359Z,1.20
2023-05-12T02:42:39.441Z,1.03
2023-05-12T02:43:39.513Z,1.02
2023-05-12T02:44:39.592Z,1.25
2023-05-12T02:45:39.626Z,1.37
2023-05-12T02:46:39.646Z,1.47
2023-05-12T02:47:39.691Z,1.10
2023-05-12T02:48:39.704Z,1.13
2023-05-12T02:49:39.727Z,1.13
2023-05-12T02:50:39.749Z,1.50
2023-05-12T02:51:39.775Z,0.74
2023-05-12T02:52:39.802Z,1.36
2023-05-12T02:53:39.880Z,1.18
2023-05-12T02:54:39.872Z,1.49
2023-05-12T02:55:39.903Z,1.43
2023-05-12T02:56:39.915Z,1.37
2023-05-12T02:57:39.926Z,1.21
2023-05-12T02:58:39.928Z,1.18
2023-05-12T02:59:39.938Z,1.20
2023-05-12T03:00:39.953Z,0.92
2023-05-12T03:01:40.062Z,1.05
2023-05-12T03:02:40.106Z,1.36
2023-05-12T03:03:40.305Z,1.40
2023-05-12T03:04:40.092Z,1.24
2023-05-12T03:05:40.090Z,1.53
2023-05-12T03:06:40.102Z,1.22
2023-05-12T03:07:40.116Z,1.19
2023-05-12T03:08:40.149Z,1.26
2023-05-12T03:09:40.154Z,1.58
2023-05-12T03:10:40.154Z,0.99
2023-05-12T03:11:40.188Z,1.15
2023-05-12T03:12:40.257Z,1.83
2023-05-12T03:13:40.259Z,1.31
2023-05-12T03:14:40.255Z,1.41
2023-05-12T03:15:40.261Z,1.07
2023-05-12T03:16:40.282Z,1.32
2023-05-12T03:17:40.331Z,1.35
2023-05-12T03:18:40.304Z,1.08
2023-05-12T03:19:40.373Z,1.16
2023-05-12T03:20:40.391Z,1.07
2023-05-12T03:21:40.404Z,1.17
2023-05-12T03:22:40.426Z,1.57
2023-05-12T03:23:40.444Z,1.27
2023-05-12T03:24:40.471Z,1.33
2023-05-12T03:25:40.466Z,1.29
2023-05-12T03:26:40.471Z,1.20
2023-05-12T03:27:40.454Z,1.31
2023-05-12T03:28:40.484Z,1.26
2023-05-12T03:29:40.485Z,1.21
2023-05-12T03:30:40.491Z,1.84
2023-05-12T03:31:40.580Z,1.30
2023-05-12T03:32:40.574Z,1.40
2023-05-12T03:33:40.563Z,1.45
2023-05-12T03:34:40.621Z,1.57
2023-05-12T03:35:40.647Z,1.28
2023-05-12T03:36:40.658Z,1.22
2023-05-12T03:37:40.674Z,1.33
2023-05-12T03:38:40.693Z,1.27
2023-05-12T03:39:40.716Z,1.10
2023-05-12T03:40:40.721Z,1.48
2023-05-12T03:41:40.744Z,1.14
2023-05-12T03:42:40.773Z,1.35
2023-05-12T03:43:40.876Z,1.25
2023-05-12T03:44:40.955Z,1.00
2023-05-12T03:45:40.964Z,1.24
2023-05-12T03:46:41.051Z,1.45
2023-05-12T03:47:41.145Z,1.32
2023-05-12T03:48:40.968Z,1.11
2023-05-12T03:49:40.961Z,1.44
2023-05-12T03:50:41.039Z,1.38
2023-05-12T03:51:41.145Z,1.33
2023-05-12T03:52:41.219Z,1.41
2023-05-12T03:53:41.317Z,1.43
2023-05-12T03:54:41.350Z,1.40
2023-05-12T03:55:41.315Z,1.49
2023-05-12T03:56:41.307Z,1.53
2023-05-12T03:57:41.303Z,1.28
2023-05-12T03:58:41.297Z,1.47
2023-05-12T03:59:41.353Z,1.23
2023-05-12T04:00:41.338Z,1.22
2023-05-12T04:01:41.411Z,1.44
2023-05-12T04:02:41.477Z,1.29
2023-05-12T04:03:41.711Z,1.33
2023-05-12T04:04:41.373Z,1.22
2023-05-12T04:05:41.380Z,1.26
2023-05-12T04:06:41.384Z,1.47
2023-05-12T04:07:41.371Z,1.40
2023-05-12T04:08:42.181Z,1.37
2023-05-12T04:09:41.371Z,1.29
2023-05-12T04:10:41.386Z,1.36
2023-05-12T04:11:41.379Z,1.21
2023-05-12T04:12:41.388Z,1.51
2023-05-12T04:13:41.399Z,1.46
2023-05-12T04:14:43.224Z,1.68
2023-05-12T04:15:41.398Z,1.43
2023-05-12T04:16:41.471Z,1.32
2023-05-12T04:17:41.494Z,1.46
2023-05-12T04:18:41.453Z,1.29
2023-05-12T04:19:41.542Z,1.11
2023-05-12T04:20:41.602Z,1.46
2023-05-12T04:21:41.631Z,1.61
2023-05-12T04:22:41.636Z,1.37
2023-05-12T04:23:41.619Z,1.12
2023-05-12T04:24:41.608Z,1.46
2023-05-12T04:25:41.604Z,1.71
2023-05-12T04:26:41.701Z,1.77
2023-05-12T04:27:41.744Z,1.47
2023-05-12T04:28:41.728Z,1.45
2023-05-12T04:29:41.740Z,1.45
2023-05-12T04:30:41.739Z,1.58
2023-05-12T04:31:41.745Z,1.40
2023-05-12T04:32:41.773Z,1.32
2023-05-12T04:33:41.773Z,1.57
2023-05-12T04:34:41.866Z,1.75
2023-05-12T04:35:41.951Z,1.29
2023-05-12T04:36:41.947Z,1.47
2023-05-12T04:37:41.941Z,1.46
2023-05-12T04:38:41.949Z,1.87
2023-05-12T04:39:41.933Z,1.64
2023-05-12T04:40:41.937Z,1.49
2023-05-12T04:41:41.961Z,1.41
2023-05-12T04:42:42.070Z,1.43
2023-05-12T04:44:42.136Z,1.49
2023-05-12T04:45:42.158Z,1.49
2023-05-12T04:46:42.143Z,1.50
2023-05-12T04:47:42.165Z,1.58
2023-05-12T04:48:42.151Z,1.35
2023-05-12T04:49:42.094Z,1.74
2023-05-12T04:50:42.083Z,1.62
2023-05-12T04:51:42.190Z,1.44
2023-05-12T04:52:42.095Z,1.48
2023-05-12T04:53:42.067Z,1.36
2023-05-12T04:54:42.051Z,1.62
2023-05-12T04:55:42.063Z,1.32
2023-05-12T04:56:42.044Z,1.96
2023-05-12T04:57:42.050Z,1.25
2023-05-12T04:58:42.051Z,1.65
2023-05-12T04:59:42.029Z,1.40
2023-05-12T05:00:42.016Z,1.38
2023-05-12T05:01:42.020Z,1.35
2023-05-12T05:02:42.128Z,1.59
2023-05-12T05:03:42.104Z,1.81
2023-05-12T05:04:42.027Z,1.46
2023-05-12T05:05:42.005Z,1.49
2023-05-12T05:06:41.986Z,1.23
2023-05-12T05:07:41.979Z,1.62
2023-05-12T05:08:41.984Z,1.04
2023-05-12T05:09:41.975Z,1.56
2023-05-12T05:10:41.964Z,1.51
2023-05-12T05:11:41.958Z,1.16
2023-05-12T05:12:41.956Z,1.51
2023-05-12T05:13:41.949Z,1.70
2023-05-12T05:14:41.935Z,1.36
2023-05-12T05:15:41.984Z,1.65
2023-05-12T05:16:41.918Z,1.34
2023-05-12T05:17:41.973Z,1.46
2023-05-12T05:18:41.955Z,1.19
2023-05-12T05:19:54.898Z,1.38
2023-05-12T05:20:45.275Z,1.77
2023-05-12T05:21:41.891Z,1.87
2023-05-12T05:22:41.882Z,1.75
2023-05-12T05:23:41.879Z,1.76
2023-05-12T05:24:41.868Z,1.69
2023-05-12T05:25:41.869Z,1.86
2023-05-12T05:26:41.872Z,1.49
2023-05-12T05:27:41.908Z,1.65
2023-05-12T05:28:41.929Z,1.25
2023-05-12T05:29:41.870Z,1.27
2023-05-12T05:30:41.914Z,1.38
2023-05-12T05:31:41.810Z,1.41
2023-05-12T05:32:42.073Z,1.33
2023-05-12T05:33:41.806Z,1.53
2023-05-12T05:34:41.845Z,1.52
2023-05-12T05:35:41.807Z,1.60
2023-05-12T05:36:41.779Z,1.45
2023-05-12T05:37:41.820Z,1.56
2023-05-12T05:38:41.768Z,1.70
2023-05-12T05:39:41.757Z,2.06
2023-05-12T05:40:53.030Z,1.92
2023-05-12T05:41:42.731Z,1.33
2023-05-12T05:42:41.752Z,1.68
2023-05-12T05:43:41.742Z,1.32
2023-05-12T05:44:41.705Z,1.50
2023-05-12T05:45:41.691Z,1.80
2023-05-12T05:46:41.811Z,1.75
2023-05-12T05:47:41.760Z,1.98
2023-05-12T05:48:41.694Z,2.28
2023-05-12T05:49:41.660Z,1.86
2023-05-12T05:50:41.688Z,2.24
2023-05-12T05:51:41.766Z,2.07
2023-05-12T05:52:41.797Z,2.36
2023-05-12T05:53:41.871Z,2.11
2023-05-12T05:54:41.887Z,2.24
2023-05-12T05:55:41.941Z,2.08
2023-05-12T05:56:42.045Z,2.32
2023-05-12T05:57:42.053Z,2.17
2023-05-12T05:58:42.143Z,1.79
2023-05-12T05:59:42.173Z,2.05
2023-05-12T06:00:42.260Z,1.92
2023-05-12T06:01:42.354Z,1.84
2023-05-12T06:02:42.499Z,1.98
2023-05-12T06:03:42.465Z,1.96
2023-05-12T06:04:42.461Z,2.26
2023-05-12T06:05:42.552Z,1.94
2023-05-12T06:06:42.579Z,2.00
2023-05-12T06:07:42.664Z,1.89
2023-05-12T06:08:42.757Z,2.24
2023-05-12T06:09:42.777Z,1.76
2023-05-12T06:10:42.826Z,1.72
2023-05-12T06:11:42.900Z,1.97
2023-05-12T06:12:43.033Z,1.65
2023-05-12T06:13:43.017Z,2.03
2023-05-12T06:14:43.092Z,1.86
2023-05-12T06:15:43.154Z,1.88
2023-05-12T06:16:43.245Z,1.74
2023-05-12T06:17:43.305Z,1.76
2023-05-12T06:18:43.454Z,1.94
2023-05-12T06:19:43.411Z,1.88
2023-05-12T06:20:43.461Z,1.80
2023-05-12T06:21:43.551Z,2.36
2023-05-12T06:22:43.632Z,2.17
2023-05-12T06:23:43.706Z,1.64
2023-05-12T06:24:43.720Z,1.65
2023-05-12T06:25:43.763Z,1.81
2023-05-12T06:26:43.846Z,1.73
2023-05-12T06:27:43.898Z,1.69
2023-05-12T06:28:43.961Z,1.73
2023-05-12T06:29:44.024Z,1.83
2023-05-12T06:30:44.104Z,1.50
2023-05-12T06:31:44.219Z,1.77
2023-05-12T06:32:44.297Z,2.08
2023-05-12T06:33:44.297Z,1.75
2023-05-12T06:34:44.361Z,1.63
2023-05-12T06:35:44.490Z,2.08
2023-05-12T06:36:44.470Z,1.47
2023-05-12T06:37:44.537Z,1.68
2023-05-12T06:38:44.601Z,2.19
2023-05-12T06:39:44.649Z,1.75
2023-05-12T06:40:44.788Z,1.87
2023-05-12T06:41:44.758Z,2.28
2023-05-12T06:42:44.824Z,1.63
2023-05-12T06:43:44.860Z,2.08
2023-05-12T06:44:44.886Z,2.01
2023-05-12T06:45:44.925Z,1.89
2023-05-12T06:46:45.034Z,1.85
2023-05-12T06:47:44.967Z,2.00
2023-05-12T06:48:44.991Z,2.16
2023-05-12T06:49:45.021Z,2.06
2023-05-12T06:50:45.002Z,2.32
2023-05-12T06:51:45.008Z,1.71
2023-05-12T06:52:45.032Z,2.14
2023-05-12T06:53:45.013Z,1.41
2023-05-12T06:54:45.006Z,2.19
2023-05-12T06:55:45.010Z,1.83
2023-05-12T06:56:45.030Z,2.42
2023-05-12T06:57:45.010Z,2.23
2023-05-12T06:58:45.139Z,2.11
2023-05-12T06:59:45.072Z,2.02
2023-05-12T07:00:45.113Z,2.12
2023-05-12T07:01:45.161Z,1.88
2023-05-12T07:02:45.223Z,2.11
2023-05-12T07:03:45.169Z,2.31
2023-05-12T07:04:45.157Z,2.10
2023-05-12T07:05:45.245Z,2.52
2023-05-12T07:06:45.250Z,1.94
2023-05-12T07:07:45.320Z,2.23
2023-05-12T07:08:45.337Z,2.28
2023-05-12T07:09:45.422Z,2.01
2023-05-12T07:10:45.478Z,1.77
2023-05-12T07:11:45.545Z,2.06
2023-05-12T07:12:45.606Z,2.01
2023-05-12T07:13:45.647Z,1.80
2023-05-12T07:14:45.706Z,2.11
2023-05-12T07:15:45.806Z,3.06
2023-05-12T07:16:45.849Z,3.31
2023-05-12T07:17:45.919Z,3.22
2023-05-12T07:18:45.923Z,3.39
2023-05-12T07:19:45.854Z,3.11
2023-05-12T07:20:45.852Z,3.49
2023-05-12T07:21:45.856Z,2.95
2023-05-12T07:22:45.924Z,2.98
2023-05-12T07:23:45.899Z,2.93
2023-05-12T07:24:45.927Z,3.32
2023-05-12T07:25:46.068Z,3.03
2023-05-12T07:26:46.012Z,2.91
2023-05-12T07:27:46.069Z,2.80
2023-05-12T07:28:46.069Z,3.25
2023-05-12T07:29:46.159Z,3.39
2023-05-12T07:30:46.152Z,3.50
2023-05-12T07:31:46.336Z,3.11
2023-05-12T07:32:46.288Z,3.06
2023-05-12T07:33:46.307Z,3.40
2023-05-12T07:34:46.309Z,2.86
2023-05-12T07:35:46.433Z,2.23
2023-05-12T07:36:46.365Z,2.38
2023-05-12T07:37:46.352Z,2.34
2023-05-12T07:38:46.356Z,2.11
2023-05-12T07:39:46.366Z,1.96
2023-05-12T07:40:46.356Z,2.04
2023-05-12T07:41:46.359Z,2.00
2023-05-12T07:42:46.597Z,1.98
2023-05-12T07:43:46.415Z,2.03
2023-05-12T07:44:46.394Z,2.00
2023-05-12T07:45:46.416Z,2.14
2023-05-12T07:46:46.444Z,2.64
2023-05-12T07:47:46.477Z,2.35
2023-05-12T07:48:46.444Z,1.93
2023-05-12T07:49:46.446Z,2.03
2023-05-12T07:50:46.493Z,1.68
2023-05-12T07:51:46.490Z,1.92
2023-05-12T07:52:46.521Z,2.27
2023-05-12T07:53:46.482Z,1.98
2023-05-12T07:54:46.481Z,1.80
2023-05-12T07:55:46.470Z,2.12
2023-05-12T07:56:46.473Z,2.08
2023-05-12T07:57:46.498Z,1.93
2023-05-12T07:58:47.636Z,2.74
2023-05-12T07:59:46.518Z,2.01
2023-05-12T08:00:46.592Z,2.14
2023-05-12T08:01:46.628Z,2.00
2023-05-12T08:02:46.628Z,2.02
2023-05-12T08:03:46.629Z,2.27
2023-05-12T08:04:46.586Z,2.16
2023-05-12T08:05:46.625Z,1.78
2023-05-12T08:06:46.676Z,2.21
2023-05-12T08:07:47.037Z,2.07
2023-05-12T08:08:46.807Z,2.56
2023-05-12T08:09:46.848Z,1.83
2023-05-12T08:10:46.833Z,1.79
2023-05-12T08:11:49.399Z,2.25
2023-05-12T08:12:46.865Z,2.03
2023-05-12T08:13:46.841Z,1.78
2023-05-12T08:14:46.874Z,2.67
2023-05-12T08:15:46.844Z,2.18
2023-05-12T08:16:46.863Z,1.90
2023-05-12T08:17:46.842Z,2.52
2023-05-12T08:18:46.903Z,2.44
2023-05-12T08:19:46.893Z,1.80
2023-05-12T08:20:46.800Z,2.34
2023-05-12T08:21:46.800Z,2.07
2023-05-12T08:22:46.785Z,2.39
2023-05-12T08:23:46.868Z,1.84
2023-05-12T08:24:46.790Z,1.91
2023-05-12T08:25:46.753Z,1.94
2023-05-12T08:26:46.850Z,1.51
2023-05-12T08:27:46.847Z,2.02
2023-05-12T08:28:46.756Z,2.07
2023-05-12T08:29:46.739Z,1.64
2023-05-12T08:30:46.760Z,1.82
2023-05-12T08:31:46.719Z,1.82
2023-05-12T08:32:46.763Z,1.54
2023-05-12T08:33:51.701Z,1.95
2023-05-12T08:34:47.692Z,1.83
2023-05-12T08:35:46.734Z,2.37
2023-05-12T08:36:46.694Z,1.98
2023-05-12T08:37:46.848Z,1.94
2023-05-12T08:38:46.675Z,2.06
2023-05-12T08:39:46.686Z,2.29
2023-05-12T08:40:46.670Z,2.07
2023-05-12T08:41:46.654Z,1.90
2023-05-12T08:42:46.655Z,2.19
2023-05-12T08:43:46.648Z,2.24
2023-05-12T08:44:46.659Z,2.33
2023-05-12T08:45:46.618Z,2.14
2023-05-12T08:46:46.729Z,2.32
2023-05-12T08:47:46.641Z,2.35
2023-05-12T08:48:47.101Z,2.49
2023-05-12T08:49:46.643Z,2.10
2023-05-12T08:50:46.594Z,2.16
2023-05-12T08:51:51.962Z,2.21
2023-05-12T08:52:47.582Z,2.18
2023-05-12T08:53:46.586Z,2.09
2023-05-12T08:54:55.597Z,2.00
2023-05-12T08:56:01.255Z,2.13
2023-05-12T08:57:46.660Z,2.55
2023-05-12T08:58:46.555Z,2.16
2023-05-12T08:59:46.535Z,1.87
2023-05-12T09:00:46.583Z,2.16
2023-05-12T09:01:46.605Z,2.27
2023-05-12T09:02:53.891Z,2.11
2023-05-12T09:03:47.512Z,2.21
2023-05-12T09:04:46.541Z,2.99
2023-05-12T09:05:46.580Z,2.03
2023-05-12T09:06:46.504Z,1.82
2023-05-12T09:07:46.485Z,1.98
2023-05-12T09:08:46.508Z,2.31
2023-05-12T09:09:46.510Z,1.69
2023-05-12T09:10:46.471Z,1.85
2023-05-12T09:11:46.588Z,2.14
2023-05-12T09:12:46.467Z,2.08
2023-05-12T09:13:46.489Z,2.10
2023-05-12T09:14:46.447Z,2.08
2023-05-12T09:15:46.463Z,2.25
2023-05-12T09:16:46.586Z,2.33
2023-05-12T09:17:46.594Z,1.98
2023-05-12T09:18:46.613Z,1.92
2023-05-12T09:19:46.608Z,2.04
2023-05-12T09:20:47.555Z,2.27
2023-05-12T09:21:46.678Z,2.24
2023-05-12T09:22:46.734Z,2.46
2023-05-12T09:23:46.785Z,1.99
2023-05-12T09:24:46.847Z,2.02
2023-05-12T09:25:47.100Z,1.83
2023-05-12T09:26:46.979Z,1.80
2023-05-12T09:27:47.132Z,2.01
2023-05-12T09:28:47.049Z,1.64
2023-05-12T09:29:55.562Z,1.97
2023-05-12T09:30:48.049Z,2.39
2023-05-12T09:31:47.063Z,2.35
2023-05-12T09:32:47.071Z,1.99
2023-05-12T09:33:47.045Z,2.31
2023-05-12T09:34:47.017Z,2.07
2023-05-12T09:35:47.032Z,2.10
2023-05-12T09:36:47.009Z,2.39
2023-05-12T09:37:47.007Z,1.86
2023-05-12T09:38:47.015Z,2.13
2023-05-12T09:39:46.977Z,1.75
2023-05-12T09:40:46.969Z,1.87
2023-05-12T09:41:47.004Z,1.91
2023-05-12T09:42:47.048Z,1.90
2023-05-12T09:43:47.067Z,1.52
2023-05-12T09:44:47.099Z,1.43
2023-05-12T09:45:47.177Z,1.70
2023-05-12T09:46:47.156Z,1.38
2023-05-12T09:47:47.194Z,1.44
2023-05-12T09:48:47.210Z,1.14
2023-05-12T09:49:47.211Z,1.60
2023-05-12T09:50:48.399Z,1.40
2023-05-12T09:51:47.232Z,1.68
2023-05-12T09:52:47.229Z,2.32
2023-05-12T09:53:47.223Z,1.33
2023-05-12T09:54:47.237Z,1.25
2023-05-12T09:55:47.246Z,1.34
2023-05-12T09:56:47.267Z,1.28
2023-05-12T09:57:47.273Z,1.45
2023-05-12T09:58:47.280Z,1.31
2023-05-12T09:59:47.447Z,1.29
2023-05-12T10:01:48.326Z,1.65
2023-05-12T10:02:47.325Z,1.28
2023-05-12T10:03:47.277Z,1.31
2023-05-12T10:04:47.346Z,1.52
2023-05-12T10:05:47.312Z,1.28
2023-05-12T10:06:47.316Z,1.57
2023-05-12T10:07:47.309Z,1.74
2023-05-12T10:08:47.318Z,1.32
2023-05-12T10:09:47.248Z,1.66
2023-05-12T10:10:47.240Z,1.28
2023-05-12T10:11:47.222Z,1.33
2023-05-12T10:12:47.300Z,1.38
2023-05-12T10:13:47.235Z,1.20
2023-05-12T10:14:47.211Z,2.58
2023-05-12T10:15:47.240Z,1.33
2023-05-12T10:16:47.221Z,1.02
2023-05-12T10:17:47.285Z,1.41
2023-05-12T10:18:47.215Z,1.61
2023-05-12T10:19:47.197Z,1.27
2023-05-12T10:20:47.189Z,1.21
2023-05-12T10:21:47.208Z,1.24
2023-05-12T10:22:47.143Z,2.21
2023-05-12T10:23:47.153Z,1.62
2023-05-12T10:24:47.188Z,1.82
2023-05-12T10:25:47.252Z,1.53
2023-05-12T10:26:47.282Z,1.44
2023-05-12T10:27:47.339Z,2.18
2023-05-12T10:28:47.418Z,2.14
2023-05-12T10:29:47.618Z,1.94
2023-05-12T10:30:47.535Z,2.11
2023-05-12T10:31:47.783Z,1.37
2023-05-12T10:32:47.662Z,1.76
2023-05-12T10:33:47.690Z,1.30
2023-05-12T10:34:47.708Z,1.78
2023-05-12T10:35:49.371Z,2.00
2023-05-12T10:36:47.773Z,1.87
2023-05-12T10:37:47.741Z,1.90
2023-05-12T10:38:47.752Z,1.55
2023-05-12T10:39:47.790Z,1.82
2023-05-12T10:40:47.849Z,2.31
2023-05-12T10:41:47.850Z,1.27
2023-05-12T10:42:47.920Z,1.60
2023-05-12T10:43:48.628Z,1.84
2023-05-12T10:44:48.036Z,1.87
2023-05-12T10:45:48.087Z,1.96
2023-05-12T10:46:48.291Z,1.64
2023-05-12T10:47:48.338Z,1.42
2023-05-12T10:48:48.296Z,1.39
2023-05-12T10:49:48.333Z,1.71
2023-05-12T10:50:48.385Z,1.64
2023-05-12T10:51:48.458Z,1.41
2023-05-12T10:52:48.472Z,1.52
2023-05-12T10:53:51.382Z,1.81
2023-05-12T10:54:49.651Z,1.21
2023-05-12T10:55:48.729Z,1.54
2023-05-12T10:56:48.928Z,1.66
2023-05-12T10:57:48.820Z,1.94
2023-05-12T10:58:48.728Z,1.64
2023-05-12T11:00:48.976Z,1.33
2023-05-12T11:02:49.571Z,1.28
2023-05-12T11:04:48.562Z,1.19
2023-05-12T11:05:49.048Z,1.46
2023-05-12T11:07:48.826Z,1.66
2023-05-12T11:08:48.711Z,1.69
2023-05-12T11:09:57.393Z,1.69
2023-05-12T11:10:49.461Z,2.12
2023-05-12T11:11:48.476Z,1.62
2023-05-12T11:12:48.398Z,1.84
2023-05-12T11:13:48.399Z,1.57
2023-05-12T11:14:48.412Z,1.40
2023-05-12T11:15:48.451Z,1.26
2023-05-12T11:16:48.410Z,1.75
2023-05-12T11:17:48.399Z,1.25
2023-05-12T11:18:48.416Z,1.32
2023-05-12T11:19:48.391Z,1.42
2023-05-12T11:20:48.450Z,1.22
2023-05-12T11:21:48.354Z,1.71
2023-05-12T11:22:48.338Z,2.02
2023-05-12T11:23:48.337Z,1.71
2023-05-12T11:24:48.336Z,2.07
2023-05-12T11:25:48.357Z,1.58
2023-05-12T11:26:48.312Z,1.37
2023-05-12T11:27:48.313Z,1.66
2023-05-12T11:28:48.302Z,1.41
2023-05-12T11:29:48.308Z,1.37
2023-05-12T11:30:48.289Z,1.58
2023-05-12T11:31:48.364Z,1.59
2023-05-12T11:32:48.451Z,1.56
2023-05-12T11:33:51.844Z,1.26
2023-05-12T11:34:49.405Z,1.47
2023-05-12T11:35:48.380Z,1.47
2023-05-12T11:36:48.363Z,1.89
2023-05-12T11:37:48.360Z,1.48
2023-05-12T11:38:48.361Z,1.74
2023-05-12T11:39:48.369Z,1.63
2023-05-12T11:40:48.354Z,1.40
2023-05-12T11:41:48.351Z,1.91
2023-05-12T11:42:48.363Z,1.78
2023-05-12T11:43:48.332Z,1.23
2023-05-12T11:44:48.479Z,1.35
2023-05-12T11:45:48.373Z,1.73
2023-05-12T11:46:48.403Z,1.60
2023-05-12T11:47:48.482Z,1.98
2023-05-12T11:48:48.522Z,2.21
2023-05-12T11:49:48.617Z,1.73
2023-05-12T11:50:48.643Z,1.16
2023-05-12T11:51:48.690Z,1.37
2023-05-12T11:52:48.769Z,1.66
2023-05-12T11:53:48.804Z,1.64
2023-05-12T11:54:48.858Z,1.66
2023-05-12T11:55:48.933Z,1.20
2023-05-12T11:56:49.010Z,1.02
2023-05-12T11:57:49.055Z,1.70
2023-05-12T11:58:49.130Z,1.60
2023-05-12T11:59:49.191Z,1.58
2023-05-12T12:00:49.238Z,1.50
2023-05-12T12:01:49.286Z,1.14
2023-05-12T12:02:49.433Z,1.56
2023-05-12T12:03:49.495Z,1.44
2023-05-12T12:04:49.460Z,1.50
2023-05-12T12:05:49.506Z,1.29
2023-05-12T12:06:49.556Z,1.52
2023-05-12T12:07:49.632Z,1.47
2023-05-12T12:08:49.673Z,1.92
2023-05-12T12:09:49.748Z,1.20
2023-05-12T12:10:49.777Z,1.07
2023-05-12T12:11:49.820Z,1.25
2023-05-12T12:12:49.832Z,1.06
2023-05-12T12:13:49.852Z,1.03
2023-05-12T12:14:49.890Z,0.95
2023-05-12T12:15:49.938Z,1.21
2023-05-12T12:16:49.920Z,1.32
2023-05-12T12:17:49.975Z,1.67
2023-05-12T12:18:49.967Z,1.54
2023-05-12T12:19:49.975Z,1.37
2023-05-12T12:20:49.972Z,1.29
2023-05-12T12:21:49.984Z,1.35
2023-05-12T12:22:49.984Z,1.27
2023-05-12T12:23:51.697Z,1.38
2023-05-12T12:24:50.044Z,1.11
2023-05-12T12:25:50.020Z,1.54
2023-05-12T12:26:50.017Z,1.13
2023-05-12T12:27:50.053Z,1.02
2023-05-12T12:28:50.056Z,1.05
2023-05-12T12:29:50.073Z,0.97
2023-05-12T12:30:50.063Z,1.35
2023-05-12T12:31:50.126Z,1.04
2023-05-12T12:32:50.174Z,1.53
2023-05-12T12:33:50.068Z,1.09
2023-05-12T12:34:50.082Z,1.46
2023-05-12T12:35:50.072Z,1.30
2023-05-12T12:36:50.062Z,1.24
2023-05-12T12:37:50.067Z,1.34
2023-05-12T12:38:50.062Z,1.17
2023-05-12T12:39:50.059Z,1.36
2023-05-12T12:40:50.068Z,1.15
2023-05-12T12:41:50.066Z,1.24
2023-05-12T12:42:50.060Z,1.22
2023-05-12T12:43:50.051Z,1.03
2023-05-12T12:44:50.044Z,0.97
2023-05-12T12:45:50.048Z,1.71
2023-05-12T12:46:50.111Z,1.06
2023-05-12T12:47:50.101Z,1.22
2023-05-12T12:48:50.050Z,1.19
2023-05-12T12:49:50.046Z,1.24
2023-05-12T12:50:50.049Z,1.17
2023-05-12T12:51:50.040Z,0.92
2023-05-12T12:52:50.051Z,0.87
2023-05-12T12:53:50.049Z,1.09
2023-05-12T12:54:50.050Z,1.09
2023-05-12T12:55:50.065Z,1.08
2023-05-12T12:56:50.059Z,1.04
2023-05-12T12:57:50.047Z,0.96
2023-05-12T12:58:50.041Z,0.69
2023-05-12T12:59:50.043Z,1.27
2023-05-12T13:00:50.088Z,0.96
2023-05-12T13:01:50.081Z,0.99
2023-05-12T13:02:50.169Z,1.27
2023-05-12T13:03:50.045Z,1.19
2023-05-12T13:04:50.027Z,1.05
2023-05-12T13:05:50.036Z,1.33
2023-05-12T13:06:50.066Z,0.98
2023-05-12T13:07:50.016Z,1.26
2023-05-12T13:08:50.013Z,1.46
2023-05-12T13:09:50.044Z,1.04
2023-05-12T13:10:50.037Z,1.01
2023-05-12T13:11:50.048Z,0.86
2023-05-12T13:12:50.068Z,1.04
2023-05-12T13:13:50.056Z,1.22
2023-05-12T13:14:50.064Z,1.10
2023-05-12T13:15:50.083Z,1.11
2023-05-12T13:16:50.168Z,1.03
2023-05-12T13:17:50.167Z,0.97
2023-05-12T13:18:50.189Z,0.87
2023-05-12T13:19:50.150Z,1.00
2023-05-12T13:20:50.133Z,1.02
2023-05-12T13:21:50.158Z,0.78
2023-05-12T13:22:50.180Z,1.03
2023-05-12T13:23:50.193Z,1.08
2023-05-12T13:24:50.197Z,0.79
2023-05-12T13:25:50.206Z,1.11